Time;durP1;ratioP1;P1;durP2;ratioP2;P2;SDS_P1;SDS_P2;PMS_P1;PMS_P2;Temp;Humidity;BMP_temperature;BMP_pressure;BME280_temperature;BME280_humidity;BME280_pressure;Samples;Min_cycle;Max_cycle;Signal;HPM_P1;HPM_P2
2023/09/02 00:01:11;;;;;;;12.07;7.45;;;;;;;;;;5029759;28;20454;-68
2023/09/02 00:03:38;;;;;;;15.60;6.88;;;;;;;;;;5028116;28;20513;-64
2023/09/02 00:06:03;;;;;;;16.15;7.28;;;;;;;;;;5030703;28;20197;-66
2023/09/02 00:08:28;;;;;;;10.93;7.30;;;;;;;;;;5028790;28;20104;-67
2023/09/02 00:10:53;;;;;;;15.75;7.47;;;;;;;;;;5029983;28;20103;-66
2023/09/02 00:13:18;;;;;;;11.27;7.03;;;;;;;;;;5030595;28;20021;-66
2023/09/02 00:15:44;;;;;;;11.50;6.35;;;;;;;;;;5029489;28;20014;-66
2023/09/02 00:18:09;;;;;;;11.43;6.45;;;;;;;;;;5029440;28;20041;-65
2023/09/02 00:20:34;;;;;;;13.45;6.80;;;;;;;;;;5028756;28;20074;-68
2023/09/02 00:22:59;;;;;;;10.63;6.32;;;;;;;;;;5027195;28;20061;-67
2023/09/02 00:25:25;;;;;;;10.23;6.03;;;;;;;;;;5028996;28;20022;-65
2023/09/02 00:27:50;;;;;;;10.45;6.30;;;;;;;;;;5028550;28;20024;-67
2023/09/02 00:30:15;;;;;;;16.00;6.22;;;;;;;;;;5029902;28;20044;-64
2023/09/02 00:32:41;;;;;;;15.15;7.28;;;;;;;;;;5028090;28;20337;-68
2023/09/02 00:35:06;;;;;;;10.60;6.45;;;;;;;;;;5022714;28;20049;-68
2023/09/02 00:37:31;;;;;;;10.15;6.63;;;;;;;;;;5019994;28;20453;-68
2023/09/02 00:39:56;;;;;;;17.23;7.32;;;;;;;;;;5026499;28;20074;-67
2023/09/02 00:42:23;;;;;;;13.98;8.35;;;;;;;;;;5027152;28;21517;-67
2023/09/02 00:44:48;;;;;;;14.65;7.32;;;;;;;;;;5028487;28;20021;-66
2023/09/02 00:47:13;;;;;;;26.20;8.18;;;;;;;;;;5041188;23;20156;-70
2023/09/02 00:49:39;;;;;;;12.88;7.53;;;;;;;;;;5031584;28;20025;-69
2023/09/02 00:52:04;;;;;;;15.07;7.32;;;;;;;;;;5027968;28;20049;-70
2023/09/02 00:54:30;;;;;;;13.65;7.45;;;;;;;;;;5016540;28;20030;-69
2023/09/02 00:56:56;;;;;;;14.18;8.38;;;;;;;;;;5031022;28;20036;-69
2023/09/02 00:59:21;;;;;;;16.42;9.98;;;;;;;;;;5031249;28;20036;-69
2023/09/02 01:01:46;;;;;;;16.55;10.07;;;;;;;;;;5028164;28;20030;-71
2023/09/02 01:04:11;;;;;;;18.77;10.48;;;;;;;;;;5027553;28;20673;-69
2023/09/02 01:06:37;;;;;;;19.38;10.93;;;;;;;;;;5030812;28;20010;-69
2023/09/02 01:09:03;;;;;;;18.48;10.18;;;;;;;;;;5021849;28;20476;-69
2023/09/02 01:11:29;;;;;;;24.50;8.90;;;;;;;;;;5030958;28;20105;-71
2023/09/02 01:13:54;;;;;;;17.42;9.10;;;;;;;;;;5030367;28;20104;-69
2023/09/02 01:16:19;;;;;;;18.30;9.48;;;;;;;;;;5030369;28;20395;-69
2023/09/02 01:18:45;;;;;;;15.18;8.02;;;;;;;;;;5029724;28;20097;-69
2023/09/02 01:21:30;;;;;;;16.67;8.05;;;;;;;;;;5030344;28;20029;-68
2023/09/02 01:23:55;;;;;;;24.95;10.15;;;;;;;;;;5029141;28;20521;-70
2023/09/02 01:26:40;;;;;;;14.60;8.82;;;;;;;;;;5030531;28;20067;-70
2023/09/02 01:29:07;;;;;;;16.42;8.80;;;;;;;;;;5030460;28;20036;-70
2023/09/02 01:31:33;;;;;;;17.25;9.25;;;;;;;;;;5030279;28;20033;-68
2023/09/02 01:33:59;;;;;;;16.77;8.65;;;;;;;;;;5028998;28;20033;-67
2023/09/02 01:36:26;;;;;;;17.13;8.25;;;;;;;;;;5020923;28;20112;-70
2023/09/02 01:38:52;;;;;;;15.82;8.02;;;;;;;;;;5024125;28;20032;-69
2023/09/02 01:41:19;;;;;;;15.52;8.20;;;;;;;;;;5028566;28;20029;-69
2023/09/02 01:43:45;;;;;;;12.38;6.78;;;;;;;;;;5028892;28;20052;-70
2023/09/02 01:46:11;;;;;;;15.10;7.43;;;;;;;;;;5030175;28;20044;-68
2023/09/02 01:48:37;;;;;;;17.85;8.82;;;;;;;;;;5028817;28;20479;-71
2023/09/02 01:51:03;;;;;;;17.77;8.60;;;;;;;;;;5030221;28;20064;-68
2023/09/02 01:53:29;;;;;;;16.10;8.38;;;;;;;;;;5022350;28;20550;-67
2023/09/02 01:55:55;;;;;;;15.95;7.90;;;;;;;;;;5025178;28;20021;-72
2023/09/02 01:58:20;;;;;;;18.17;8.48;;;;;;;;;;5029984;28;20026;-70
2023/09/02 02:00:45;;;;;;;17.27;8.27;;;;;;;;;;5030116;28;20159;-69
2023/09/02 02:03:14;;;;;;;18.58;9.05;;;;;;;;;;5029064;28;20108;-69
2023/09/02 02:05:45;;;;;;;23.38;9.65;;;;;;;;;;5029553;28;20014;-69
2023/09/02 02:08:12;;;;;;;12.70;7.22;;;;;;;;;;5029827;28;20098;-69
2023/09/02 02:10:38;;;;;;;21.63;8.73;;;;;;;;;;5024050;28;20014;-68
2023/09/02 02:13:03;;;;;;;17.25;7.97;;;;;;;;;;5029867;28;20120;-67
2023/09/02 02:15:29;;;;;;;25.55;8.63;;;;;;;;;;5029323;28;20471;-70
2023/09/02 02:17:54;;;;;;;13.35;7.45;;;;;;;;;;5025603;28;20026;-69
2023/09/02 02:20:21;;;;;;;25.77;8.93;;;;;;;;;;5029374;28;20075;-67
2023/09/02 02:22:46;;;;;;;33.35;7.18;;;;;;;;;;5025590;28;20079;-70
2023/09/02 02:25:11;;;;;;;36.55;7.00;;;;;;;;;;5027009;28;20022;-70
2023/09/02 02:27:36;;;;;;;71.20;8.13;;;;;;;;;;5029842;28;20121;-69
2023/09/02 02:30:03;;;;;;;47.70;7.60;;;;;;;;;;5029721;28;20026;-69
2023/09/02 02:32:28;;;;;;;10.80;5.60;;;;;;;;;;5028119;28;20022;-69
2023/09/02 02:34:54;;;;;;;27.00;6.65;;;;;;;;;;5027697;28;20025;-68
2023/09/02 02:37:20;;;;;;;10.65;5.38;;;;;;;;;;5022972;28;20386;-71
2023/09/02 02:39:45;;;;;;;16.98;6.10;;;;;;;;;;5026239;28;20038;-69
2023/09/02 02:42:11;;;;;;;35.03;7.45;;;;;;;;;;5024374;28;20040;-70
2023/09/02 02:44:36;;;;;;;12.10;6.72;;;;;;;;;;5028937;28;20021;-70
2023/09/02 02:47:01;;;;;;;22.80;6.53;;;;;;;;;;5028610;28;20068;-69
2023/09/02 02:49:27;;;;;;;29.33;7.43;;;;;;;;;;5028476;28;20036;-70
2023/09/02 02:51:53;;;;;;;21.30;8.07;;;;;;;;;;5027994;28;20025;-68
2023/09/02 02:54:18;;;;;;;20.08;7.95;;;;;;;;;;5028043;28;20047;-67
2023/09/02 02:56:44;;;;;;;13.32;7.03;;;;;;;;;;5028404;28;20455;-70
2023/09/02 02:59:09;;;;;;;17.25;7.55;;;;;;;;;;5033796;28;20483;-69
2023/09/02 03:01:34;;;;;;;19.48;7.43;;;;;;;;;;5033366;28;20104;-68
2023/09/02 03:04:00;;;;;;;26.92;8.88;;;;;;;;;;5031837;28;20520;-70
2023/09/02 03:06:25;;;;;;;17.35;8.65;;;;;;;;;;5033770;28;20021;-69
2023/09/02 03:08:50;;;;;;;18.88;8.45;;;;;;;;;;5033366;28;20017;-71
2023/09/02 03:11:15;;;;;;;16.08;7.75;;;;;;;;;;5027572;28;20445;-69
2023/09/02 03:13:40;;;;;;;13.48;7.32;;;;;;;;;;5032291;28;20467;-70
2023/09/02 03:16:06;;;;;;;16.23;7.78;;;;;;;;;;5032885;28;20056;-72
2023/09/02 03:18:32;;;;;;;14.82;7.43;;;;;;;;;;5032161;28;20057;-70
2023/09/02 03:21:02;;;;;;;17.10;7.72;;;;;;;;;;5029454;28;20026;-69
2023/09/02 03:23:27;;;;;;;14.25;8.00;;;;;;;;;;5032721;28;20063;-69
2023/09/02 03:25:52;;;;;;;14.63;7.15;;;;;;;;;;5032582;28;20021;-70
2023/09/02 03:28:17;;;;;;;21.00;7.72;;;;;;;;;;5032688;28;20615;-68
2023/09/02 03:30:43;;;;;;;12.95;7.38;;;;;;;;;;5032722;28;20479;-72
2023/09/02 03:33:09;;;;;;;15.15;7.25;;;;;;;;;;5031983;28;20034;-69
2023/09/02 03:35:38;;;;;;;13.02;6.50;;;;;;;;;;5031123;28;20097;-71
2023/09/02 03:38:04;;;;;;;14.40;7.55;;;;;;;;;;5025756;28;20530;-69
2023/09/02 03:40:29;;;;;;;12.05;6.45;;;;;;;;;;5029251;28;20049;-69
2023/09/02 03:42:55;;;;;;;20.00;7.38;;;;;;;;;;5047596;28;20616;-68
2023/09/02 03:45:20;;;;;;;13.10;7.38;;;;;;;;;;5032112;28;20589;-68
2023/09/02 03:47:45;;;;;;;14.07;7.53;;;;;;;;;;5031521;28;20116;-67
2023/09/02 03:50:10;;;;;;;12.77;7.13;;;;;;;;;;5031643;28;20021;-70
2023/09/02 03:52:36;;;;;;;14.68;7.85;;;;;;;;;;5030912;28;20029;-71
2023/09/02 03:55:01;;;;;;;13.93;7.90;;;;;;;;;;5020464;28;20041;-68
2023/09/02 03:57:26;;;;;;;13.52;8.07;;;;;;;;;;5031859;28;20017;-67
2023/09/02 03:59:51;;;;;;;13.77;8.10;;;;;;;;;;5032010;28;20029;-69
2023/09/02 04:02:17;;;;;;;14.90;8.57;;;;;;;;;;5031401;28;20064;-70
2023/09/02 04:04:42;;;;;;;24.05;12.45;;;;;;;;;;5030646;28;20021;-68
2023/09/02 04:07:07;;;;;;;17.17;9.63;;;;;;;;;;5031832;28;20022;-69
2023/09/02 04:09:34;;;;;;;16.42;9.48;;;;;;;;;;5031707;28;20013;-70
2023/09/02 04:11:59;;;;;;;13.45;7.22;;;;;;;;;;5032076;28;20021;-69
2023/09/02 04:14:24;;;;;;;17.15;8.60;;;;;;;;;;5030026;28;20022;-69
2023/09/02 04:16:51;;;;;;;12.23;7.75;;;;;;;;;;5031554;28;20021;-68
2023/09/02 04:19:17;;;;;;;14.25;7.93;;;;;;;;;;5029932;28;20029;-69
2023/09/02 04:21:43;;;;;;;16.00;8.55;;;;;;;;;;5029399;28;20037;-68
2023/09/02 04:24:08;;;;;;;13.90;7.85;;;;;;;;;;5030903;28;20026;-69
2023/09/02 04:26:33;;;;;;;13.75;8.00;;;;;;;;;;5031435;28;20075;-69
2023/09/02 04:29:00;;;;;;;14.23;7.82;;;;;;;;;;5030347;28;20024;-69
2023/09/02 04:31:25;;;;;;;17.73;8.63;;;;;;;;;;5032098;28;20034;-68
2023/09/02 04:33:50;;;;;;;17.15;8.63;;;;;;;;;;5029190;28;20364;-69
2023/09/02 04:36:16;;;;;;;15.43;8.00;;;;;;;;;;5030565;28;20658;-70
2023/09/02 04:38:41;;;;;;;15.48;8.57;;;;;;;;;;5023938;28;20060;-70
2023/09/02 04:41:06;;;;;;;24.15;8.60;;;;;;;;;;5030746;28;20044;-69
2023/09/02 04:43:32;;;;;;;17.55;7.35;;;;;;;;;;5030371;28;20052;-71
2023/09/02 04:46:00;;;;;;;17.20;8.70;;;;;;;;;;5031534;28;20017;-69
2023/09/02 04:48:25;;;;;;;26.42;8.40;;;;;;;;;;5029767;28;20032;-69
2023/09/02 04:50:53;;;;;;;14.93;7.38;;;;;;;;;;5031377;28;20033;-70
2023/09/02 04:53:19;;;;;;;22.13;7.72;;;;;;;;;;5031530;28;20033;-71
2023/09/02 04:55:44;;;;;;;17.85;7.35;;;;;;;;;;5026014;28;20098;-69
2023/09/02 04:58:09;;;;;;;16.13;7.43;;;;;;;;;;5031424;28;20029;-69
2023/09/02 05:00:35;;;;;;;13.50;7.65;;;;;;;;;;5031415;28;20029;-67
2023/09/02 05:03:01;;;;;;;15.85;7.70;;;;;;;;;;5030260;28;20018;-69
2023/09/02 05:05:29;;;;;;;21.30;8.68;;;;;;;;;;5029696;28;20032;-71
2023/09/02 05:07:54;;;;;;;16.73;7.00;;;;;;;;;;5031362;28;20387;-70
2023/09/02 05:10:20;;;;;;;18.13;8.60;;;;;;;;;;5027588;28;20024;-70
2023/09/02 05:12:45;;;;;;;28.45;8.25;;;;;;;;;;5030234;28;20487;-70
2023/09/02 05:15:10;;;;;;;15.27;7.47;;;;;;;;;;5029834;28;20025;-70
2023/09/02 05:17:36;;;;;;;18.20;7.65;;;;;;;;;;5028952;28;20029;-68
2023/09/02 05:20:03;;;;;;;14.80;7.22;;;;;;;;;;5030079;28;20025;-69
2023/09/02 05:22:28;;;;;;;17.23;6.60;;;;;;;;;;5025067;28;20065;-71
2023/09/02 05:24:53;;;;;;;12.93;6.88;;;;;;;;;;5020963;28;20056;-68
2023/09/02 05:27:19;;;;;;;14.65;6.65;;;;;;;;;;5039363;28;20021;-68
2023/09/02 05:29:44;;;;;;;13.10;6.95;;;;;;;;;;5030903;28;20524;-65
2023/09/02 05:32:09;;;;;;;11.07;6.45;;;;;;;;;;5030666;28;20029;-69
2023/09/02 05:34:35;;;;;;;12.45;6.40;;;;;;;;;;5031027;28;20083;-70
2023/09/02 05:37:00;;;;;;;12.10;6.47;;;;;;;;;;5033108;28;20049;-68
2023/09/02 05:39:26;;;;;;;12.85;6.88;;;;;;;;;;5029088;28;20061;-69
2023/09/02 05:41:51;;;;;;;15.75;6.60;;;;;;;;;;5029278;28;20032;-69
2023/09/02 05:44:16;;;;;;;12.35;5.90;;;;;;;;;;5028805;28;20053;-68
2023/09/02 05:46:42;;;;;;;10.77;6.18;;;;;;;;;;5028861;28;20013;-68
2023/09/02 05:49:07;;;;;;;12.93;6.85;;;;;;;;;;5027973;28;20387;-69
2023/09/02 05:51:32;;;;;;;13.13;6.10;;;;;;;;;;5027596;28;20150;-69
2023/09/02 05:53:58;;;;;;;13.65;6.95;;;;;;;;;;5023798;28;20026;-69
2023/09/02 05:56:23;;;;;;;10.93;5.82;;;;;;;;;;5026907;28;20402;-68
2023/09/02 05:58:48;;;;;;;13.80;7.38;;;;;;;;;;5029204;28;20453;-69
2023/09/02 06:01:13;;;;;;;11.35;6.35;;;;;;;;;;5028349;28;20025;-69
2023/09/02 06:03:40;;;;;;;12.45;7.18;;;;;;;;;;5021451;28;20111;-70
2023/09/02 06:06:09;;;;;;;12.27;6.38;;;;;;;;;;5028230;28;20113;-70
2023/09/02 06:08:34;;;;;;;13.35;7.18;;;;;;;;;;5028037;28;20423;-69
2023/09/02 06:11:00;;;;;;;14.35;7.90;;;;;;;;;;5028178;28;20068;-70
2023/09/02 06:13:25;;;;;;;14.65;7.10;;;;;;;;;;5029022;28;20021;-71
2023/09/02 06:15:51;;;;;;;12.70;7.50;;;;;;;;;;5025264;28;20093;-70
2023/09/02 06:18:16;;;;;;;12.10;6.95;;;;;;;;;;5016698;28;20018;-71
2023/09/02 06:20:41;;;;;;;13.20;6.82;;;;;;;;;;5025427;28;20032;-70
2023/09/02 06:23:06;;;;;;;15.35;7.22;;;;;;;;;;5017074;28;20030;-66
2023/09/02 06:25:32;;;;;;;13.05;7.13;;;;;;;;;;5015150;28;20018;-68
2023/09/02 06:27:57;;;;;;;13.43;7.43;;;;;;;;;;5029158;28;20018;-71
2023/09/02 06:30:22;;;;;;;11.60;6.28;;;;;;;;;;5029403;28;20020;-68
2023/09/02 06:32:47;;;;;;;16.10;7.63;;;;;;;;;;5029010;28;20020;-71
2023/09/02 06:35:15;;;;;;;14.30;7.03;;;;;;;;;;5027308;28;20040;-70
2023/09/02 06:37:41;;;;;;;11.50;6.38;;;;;;;;;;5029557;28;20398;-71
2023/09/02 06:40:06;;;;;;;16.02;7.68;;;;;;;;;;5029378;28;20029;-69
2023/09/02 06:42:31;;;;;;;13.02;6.60;;;;;;;;;;5028876;28;20041;-69
2023/09/02 06:44:56;;;;;;;12.20;6.32;;;;;;;;;;5028869;28;20021;-70
2023/09/02 06:49:49;;;;;;;12.88;6.70;;;;;;;;;;4985901;28;20046;-68
2023/09/02 06:52:14;;;;;;;13.27;6.38;;;;;;;;;;4981035;28;20034;-66
2023/09/02 06:54:39;;;;;;;9.73;5.88;;;;;;;;;;4979554;28;20469;-68
2023/09/02 06:57:05;;;;;;;11.73;5.85;;;;;;;;;;4988385;28;20031;-68
2023/09/02 06:59:30;;;;;;;11.27;6.45;;;;;;;;;;4986716;28;20042;-69
2023/09/02 07:01:55;;;;;;;12.05;6.18;;;;;;;;;;4989835;28;20118;-68
2023/09/02 07:04:20;;;;;;;14.18;6.05;;;;;;;;;;4984422;28;20037;-64
2023/09/02 07:06:46;;;;;;;9.52;5.25;;;;;;;;;;4994270;28;20085;-66
2023/09/02 07:09:11;;;;;;;11.23;5.90;;;;;;;;;;4992268;28;20027;-67
2023/09/02 07:11:36;;;;;;;8.18;4.95;;;;;;;;;;4985006;28;20026;-68
2023/09/02 07:14:02;;;;;;;10.45;5.35;;;;;;;;;;4986189;28;20033;-68
2023/09/02 07:16:27;;;;;;;12.98;6.20;;;;;;;;;;4986164;28;20100;-69
2023/09/02 07:18:53;;;;;;;13.80;6.57;;;;;;;;;;4980060;28;20117;-69
2023/09/02 07:21:24;;;;;;;11.15;6.10;;;;;;;;;;4996774;28;20139;-68
2023/09/02 07:23:50;;;;;;;12.68;5.53;;;;;;;;;;4994515;28;20597;-67
2023/09/02 07:26:15;;;;;;;9.93;5.85;;;;;;;;;;4990998;28;20515;-69
2023/09/02 07:28:42;;;;;;;12.50;5.20;;;;;;;;;;4983890;28;20029;-66
2023/09/02 07:31:07;;;;;;;12.10;5.57;;;;;;;;;;4986954;28;20046;-68
2023/09/02 07:33:33;;;;;;;11.77;5.68;;;;;;;;;;4984413;28;20049;-67
2023/09/02 07:35:59;;;;;;;10.95;5.53;;;;;;;;;;4985139;28;20034;-68
2023/09/02 07:38:24;;;;;;;14.23;5.65;;;;;;;;;;4991292;28;20029;-70
2023/09/02 07:40:50;;;;;;;12.68;6.05;;;;;;;;;;4996449;28;20024;-67
2023/09/02 07:43:15;;;;;;;11.95;5.80;;;;;;;;;;4996637;28;20038;-69
2023/09/02 07:45:40;;;;;;;10.68;5.00;;;;;;;;;;4995123;28;20429;-67
2023/09/02 07:48:06;;;;;;;13.95;5.30;;;;;;;;;;4989859;28;20108;-69
2023/09/02 07:50:31;;;;;;;9.05;5.22;;;;;;;;;;4990648;28;20353;-66
2023/09/02 07:52:56;;;;;;;11.77;4.90;;;;;;;;;;4990042;28;20042;-68
2023/09/02 07:55:23;;;;;;;8.35;4.70;;;;;;;;;;4990056;28;20081;-68
2023/09/02 07:57:48;;;;;;;10.75;5.18;;;;;;;;;;4979770;28;20048;-67
2023/09/02 08:00:13;;;;;;;9.85;5.88;;;;;;;;;;4990791;28;20438;-68
2023/09/02 08:02:39;;;;;;;10.50;5.90;;;;;;;;;;4989360;28;20023;-68
2023/09/02 08:05:05;;;;;;;11.13;5.35;;;;;;;;;;4988138;28;20441;-69
2023/09/02 08:07:33;;;;;;;9.45;5.15;;;;;;;;;;4984515;28;20098;-64
2023/09/02 08:09:58;;;;;;;9.05;5.72;;;;;;;;;;4990640;28;20470;-65
2023/09/02 08:12:23;;;;;;;8.98;5.45;;;;;;;;;;4990472;28;20082;-66
2023/09/02 08:14:49;;;;;;;9.98;5.10;;;;;;;;;;4988777;28;20018;-68
2023/09/02 08:17:15;;;;;;;11.20;5.32;;;;;;;;;;4991736;28;20034;-67
2023/09/02 08:19:40;;;;;;;8.75;5.35;;;;;;;;;;4988219;28;20034;-65
2023/09/02 08:22:05;;;;;;;15.98;5.93;;;;;;;;;;4989346;28;20500;-67
2023/09/02 08:24:30;;;;;;;10.77;5.70;;;;;;;;;;4983625;28;20104;-69
2023/09/02 08:26:56;;;;;;;9.98;6.22;;;;;;;;;;4990513;28;20091;-65
2023/09/02 08:29:21;;;;;;;11.55;6.45;;;;;;;;;;4987922;28;20053;-66
2023/09/02 08:31:51;;;;;;;10.43;5.47;;;;;;;;;;4989159;28;20133;-66
2023/09/02 08:34:16;;;;;;;14.80;6.05;;;;;;;;;;4988313;28;20082;-67
2023/09/02 08:36:41;;;;;;;8.00;6.03;;;;;;;;;;4985068;28;20102;-67
2023/09/02 08:39:06;;;;;;;9.30;5.90;;;;;;;;;;4990497;28;20091;-66
2023/09/02 08:41:34;;;;;;;11.13;5.63;;;;;;;;;;4987676;28;20022;-68
2023/09/02 08:44:03;;;;;;;14.50;7.07;;;;;;;;;;4980995;28;20018;-65
2023/09/02 08:46:28;;;;;;;;;;;;;;;;;;4989537;28;20045;-65
2023/09/02 08:48:57;;;;;;;19.02;8.55;;;;;;;;;;4988273;28;19917;-67
2023/09/02 08:51:22;;;;;;;11.77;7.43;;;;;;;;;;4989911;28;20512;-65
2023/09/02 08:53:48;;;;;;;12.98;7.32;;;;;;;;;;4988655;28;20157;-67
2023/09/02 08:56:13;;;;;;;12.25;6.85;;;;;;;;;;4990680;28;20026;-64
2023/09/02 08:58:42;;;;;;;15.05;9.23;;;;;;;;;;4989606;28;20064;-63
2023/09/02 09:01:07;;;;;;;15.60;9.70;;;;;;;;;;4989208;28;20464;-67
2023/09/02 09:03:33;;;;;;;17.40;11.35;;;;;;;;;;4987329;28;20129;-64
2023/09/02 09:06:00;;;;;;;14.75;9.90;;;;;;;;;;4988657;28;20030;-64
2023/09/02 09:08:25;;;;;;;22.45;12.05;;;;;;;;;;4985725;28;20073;-66
2023/09/02 09:10:51;;;;;;;17.40;11.02;;;;;;;;;;4982810;28;20101;-65
2023/09/02 09:13:17;;;;;;;17.60;11.13;;;;;;;;;;4988713;28;20033;-68
2023/09/02 09:15:43;;;;;;;20.00;14.15;;;;;;;;;;4988390;28;20026;-65
2023/09/02 09:18:09;;;;;;;17.67;10.70;;;;;;;;;;4989563;28;20034;-67
2023/09/02 09:20:35;;;;;;;17.58;11.43;;;;;;;;;;4986389;28;20468;-66
2023/09/02 09:23:05;;;;;;;13.43;8.25;;;;;;;;;;4984635;28;20092;-64
2023/09/02 09:25:30;;;;;;;17.00;9.48;;;;;;;;;;4988966;28;20033;-65
2023/09/02 09:28:06;;;;;;;15.07;8.45;;;;;;;;;;4989648;28;20026;-66
2023/09/02 09:30:31;;;;;;;15.32;9.93;;;;;;;;;;4988949;28;20783;-67
2023/09/02 09:33:01;;;;;;;16.15;9.38;;;;;;;;;;4989210;28;20097;-67
2023/09/02 09:35:26;;;;;;;16.67;9.90;;;;;;;;;;4988122;28;20561;-67
2023/09/02 09:37:53;;;;;;;15.98;11.18;;;;;;;;;;4988630;28;20038;-63
2023/09/02 09:40:27;;;;;;;15.40;10.93;;;;;;;;;;4987903;28;20018;-66
2023/09/02 09:42:52;;;;;;;16.90;9.63;;;;;;;;;;4988259;28;20705;-67
2023/09/02 09:45:18;;;;;;;13.73;8.27;;;;;;;;;;4988669;28;20068;-67
2023/09/02 09:47:45;;;;;;;14.73;9.40;;;;;;;;;;4989967;28;20025;-65
2023/09/02 09:50:12;;;;;;;10.65;7.82;;;;;;;;;;4988106;28;20026;-69
2023/09/02 09:52:37;;;;;;;12.70;7.70;;;;;;;;;;4988712;28;20018;-66
2023/09/02 09:55:03;;;;;;;9.80;5.97;;;;;;;;;;4988708;28;20445;-68
2023/09/02 09:57:37;;;;;;;6.53;4.10;;;;;;;;;;4988418;28;20380;-67
2023/09/02 10:00:05;;;;;;;6.45;4.00;;;;;;;;;;4989023;28;20045;-67
2023/09/02 10:02:30;;;;;;;10.20;5.22;;;;;;;;;;4986104;28;20523;-67
2023/09/02 10:04:59;;;;;;;8.68;4.25;;;;;;;;;;4987004;28;20101;-65
2023/09/02 10:07:25;;;;;;;6.63;4.30;;;;;;;;;;4988147;28;20023;-63
2023/09/02 10:09:50;;;;;;;7.35;4.38;;;;;;;;;;4988210;28;20014;-65
2023/09/02 10:12:16;;;;;;;6.25;3.42;;;;;;;;;;4983490;28;20564;-64
2023/09/02 10:14:42;;;;;;;5.55;3.20;;;;;;;;;;4980658;28;20491;-67
2023/09/02 10:17:08;;;;;;;5.90;3.15;;;;;;;;;;4987221;28;20105;-66
2023/09/02 10:19:34;;;;;;;6.43;3.47;;;;;;;;;;4987981;28;20033;-66
2023/09/02 10:22:00;;;;;;;10.65;3.90;;;;;;;;;;4981973;28;20026;-67
2023/09/02 10:24:28;;;;;;;7.53;3.70;;;;;;;;;;4987351;28;20062;-64
2023/09/02 10:26:53;;;;;;;6.28;3.60;;;;;;;;;;4987939;28;20029;-67
2023/09/02 10:29:21;;;;;;;7.13;3.63;;;;;;;;;;4988292;28;20121;-67
2023/09/02 10:31:48;;;;;;;7.38;3.58;;;;;;;;;;4975148;28;20149;-69
2023/09/02 10:34:18;;;;;;;5.28;3.20;;;;;;;;;;4986964;28;20113;-67
2023/09/02 10:37:04;;;;;;;6.50;3.88;;;;;;;;;;4987827;28;20477;-65
2023/09/02 10:39:34;;;;;;;5.85;3.90;;;;;;;;;;4987512;28;20057;-64
2023/09/02 10:42:00;;;;;;;4.55;3.33;;;;;;;;;;4988222;28;20031;-64
2023/09/02 10:44:25;;;;;;;6.25;3.20;;;;;;;;;;4987517;28;20641;-67
2023/09/02 10:46:51;;;;;;;5.68;3.70;;;;;;;;;;4987728;28;20023;-66
2023/09/02 10:49:16;;;;;;;5.68;3.70;;;;;;;;;;4987084;28;20038;-67
2023/09/02 10:51:42;;;;;;;7.95;3.55;;;;;;;;;;4984472;28;20133;-64
2023/09/02 10:54:07;;;;;;;4.32;2.65;;;;;;;;;;4985222;28;20033;-70
2023/09/02 10:56:33;;;;;;;4.97;2.90;;;;;;;;;;4986574;28;20416;-66
2023/09/02 10:58:59;;;;;;;5.13;3.00;;;;;;;;;;4985461;28;20030;-63
2023/09/02 11:01:25;;;;;;;5.95;2.88;;;;;;;;;;4981690;28;20138;-64
2023/09/02 11:03:52;;;;;;;5.85;3.42;;;;;;;;;;4979089;28;20445;-68
2023/09/02 11:06:17;;;;;;;6.28;3.75;;;;;;;;;;4988201;28;20023;-66
2023/09/02 11:08:44;;;;;;;6.60;3.20;;;;;;;;;;4987880;28;20022;-67
2023/09/02 11:11:09;;;;;;;5.90;3.30;;;;;;;;;;4986987;28;20098;-65
2023/09/02 11:13:54;;;;;;;5.30;2.63;;;;;;;;;;4975237;28;20174;-68
2023/09/02 11:16:19;;;;;;;6.97;2.90;;;;;;;;;;4988415;28;20023;-68
2023/09/02 11:18:44;;;;;;;5.05;2.58;;;;;;;;;;4990801;28;20026;-67
2023/09/02 11:21:10;;;;;;;5.50;1.77;;;;;;;;;;4986015;28;20100;-67
2023/09/02 11:23:35;;;;;;;4.13;2.28;;;;;;;;;;4988578;28;20087;-66
2023/09/02 11:26:04;;;;;;;4.22;2.42;;;;;;;;;;4992290;28;20420;-69
2023/09/02 11:28:30;;;;;;;4.88;2.25;;;;;;;;;;4992344;28;20495;-67
2023/09/02 11:31:01;;;;;;;4.43;2.22;;;;;;;;;;4992514;28;20026;-67
2023/09/02 11:33:26;;;;;;;5.93;2.30;;;;;;;;;;4989789;28;20492;-69
2023/09/02 11:35:52;;;;;;;6.70;2.50;;;;;;;;;;4991224;28;20109;-66
2023/09/02 11:38:19;;;;;;;5.28;2.35;;;;;;;;;;4991581;28;20064;-67
2023/09/02 11:40:44;;;;;;;5.63;2.33;;;;;;;;;;4991930;28;20049;-68
2023/09/02 11:43:09;;;;;;;5.95;2.30;;;;;;;;;;4988743;28;20022;-67
2023/09/02 11:45:35;;;;;;;4.88;2.00;;;;;;;;;;4990101;28;20023;-67
2023/09/02 11:48:04;;;;;;;6.38;2.30;;;;;;;;;;4990474;28;20118;-65
2023/09/02 11:50:29;;;;;;;6.45;2.20;;;;;;;;;;4990966;28;20500;-67
2023/09/02 11:52:56;;;;;;;6.72;2.00;;;;;;;;;;4989904;28;20065;-67
2023/09/02 11:55:22;;;;;;;3.90;2.22;;;;;;;;;;4990729;28;20026;-65
2023/09/02 11:57:47;;;;;;;4.25;2.10;;;;;;;;;;4990584;28;20018;-69
2023/09/02 12:00:16;;;;;;;4.18;2.22;;;;;;;;;;4990965;28;20096;-66
2023/09/02 12:02:41;;;;;;;4.65;2.47;;;;;;;;;;4991338;28;20026;-65
2023/09/02 12:05:07;;;;;;;5.13;2.00;;;;;;;;;;4990530;28;20029;-67
2023/09/02 12:07:34;;;;;;;5.55;1.95;;;;;;;;;;4990975;28;20018;-67
2023/09/02 12:10:06;;;;;;;3.15;1.60;;;;;;;;;;4991619;28;20025;-66
2023/09/02 12:12:31;;;;;;;3.35;1.83;;;;;;;;;;4979430;28;20026;-67
2023/09/02 12:14:57;;;;;;;4.72;1.77;;;;;;;;;;4990445;28;20026;-70
2023/09/02 12:17:22;;;;;;;4.13;1.95;;;;;;;;;;4990349;28;20456;-64
2023/09/02 12:19:48;;;;;;;2.33;1.58;;;;;;;;;;4990554;28;20088;-67
2023/09/02 12:22:13;;;;;;;3.50;1.80;;;;;;;;;;4981452;28;20037;-63
2023/09/02 12:24:38;;;;;;;3.53;1.70;;;;;;;;;;4988379;28;20416;-67
2023/09/02 12:27:04;;;;;;;2.87;1.80;;;;;;;;;;4990988;28;20376;-68
2023/09/02 12:29:29;;;;;;;3.35;1.90;;;;;;;;;;4990146;28;20335;-68
2023/09/02 12:31:58;;;;;;;8.15;2.10;;;;;;;;;;4990526;28;20117;-67
2023/09/02 12:34:25;;;;;;;3.13;1.50;;;;;;;;;;4989349;28;20018;-70
2023/09/02 12:36:50;;;;;;;6.63;1.80;;;;;;;;;;4990311;28;20018;-69
2023/09/02 12:39:22;;;;;;;5.65;2.20;;;;;;;;;;4990301;28;20105;-66
2023/09/02 12:41:48;;;;;;;3.70;2.00;;;;;;;;;;4990408;28;20034;-67
2023/09/02 12:44:18;;;;;;;5.47;1.60;;;;;;;;;;4986605;28;20014;-65
2023/09/02 12:46:44;;;;;;;4.95;1.40;;;;;;;;;;4988307;28;20022;-69
2023/09/02 12:49:09;;;;;;;2.63;1.60;;;;;;;;;;4990276;28;20116;-69
2023/09/02 12:51:37;;;;;;;2.35;1.60;;;;;;;;;;4989993;28;20472;-64
2023/09/02 12:54:12;;;;;;;3.67;1.48;;;;;;;;;;4989379;28;20104;-68
2023/09/02 12:56:38;;;;;;;4.05;1.33;;;;;;;;;;4990040;28;20044;-66
2023/09/02 12:59:04;;;;;;;15.95;2.40;;;;;;;;;;4989319;28;20419;-67
2023/09/02 13:01:29;;;;;;;3.75;1.83;;;;;;;;;;4989759;28;20022;-69
2023/09/02 13:03:54;;;;;;;3.15;1.52;;;;;;;;;;4985760;28;20480;-63
2023/09/02 13:06:19;;;;;;;2.65;1.60;;;;;;;;;;4988706;28;20452;-64
2023/09/02 13:08:45;;;;;;;2.67;1.40;;;;;;;;;;4989685;28;20081;-64
2023/09/02 13:11:10;;;;;;;2.97;1.60;;;;;;;;;;4981085;28;20072;-66
2023/09/02 13:13:36;;;;;;;2.22;1.40;;;;;;;;;;4988476;28;20033;-67
2023/09/02 13:16:01;;;;;;;3.28;1.60;;;;;;;;;;4989252;28;20030;-65
2023/09/02 13:18:26;;;;;;;3.53;1.65;;;;;;;;;;4988207;28;20034;-66
2023/09/02 13:20:52;;;;;;;4.60;1.60;;;;;;;;;;4985804;28;20022;-65
2023/09/02 13:23:17;;;;;;;4.13;1.20;;;;;;;;;;4982360;28;20412;-65
2023/09/02 13:25:42;;;;;;;5.55;1.50;;;;;;;;;;4988590;28;20180;-66
2023/09/02 13:28:07;;;;;;;3.65;1.77;;;;;;;;;;4989075;28;20077;-65
2023/09/02 13:30:33;;;;;;;5.03;1.40;;;;;;;;;;4989541;28;20105;-65
2023/09/02 13:32:58;;;;;;;3.83;1.33;;;;;;;;;;4988553;28;20030;-67
2023/09/02 13:35:24;;;;;;;2.22;1.48;;;;;;;;;;4988550;28;20030;-64
2023/09/02 13:37:49;;;;;;;3.88;1.60;;;;;;;;;;4988628;28;20397;-67
2023/09/02 13:40:14;;;;;;;2.22;1.30;;;;;;;;;;4988473;28;20022;-66
2023/09/02 13:42:40;;;;;;;2.43;1.33;;;;;;;;;;4988813;28;21716;-66
2023/09/02 13:45:11;;;;;;;2.90;1.20;;;;;;;;;;4988143;28;20279;-66
2023/09/02 13:47:38;;;;;;;3.28;1.23;;;;;;;;;;4987897;28;20026;-64
2023/09/02 13:50:06;;;;;;;3.00;1.20;;;;;;;;;;4988425;28;20546;-65
2023/09/02 13:52:31;;;;;;;2.00;1.02;;;;;;;;;;4988771;28;20023;-69
2023/09/02 13:54:57;;;;;;;3.85;1.30;;;;;;;;;;4988479;28;20536;-65
2023/09/02 13:57:23;;;;;;;1.67;1.02;;;;;;;;;;4988881;28;20128;-67
2023/09/02 13:59:51;;;;;;;3.78;1.25;;;;;;;;;;4987439;28;20021;-68
2023/09/02 14:02:18;;;;;;;5.22;1.27;;;;;;;;;;4988490;28;20030;-66
2023/09/02 14:04:44;;;;;;;6.75;1.70;;;;;;;;;;4987329;28;20076;-65
2023/09/02 14:07:11;;;;;;;1.98;1.17;;;;;;;;;;4988320;28;20074;-67
2023/09/02 14:09:42;;;;;;;2.13;1.30;;;;;;;;;;4982636;28;20107;-67
2023/09/02 14:12:09;;;;;;;1.15;0.90;;;;;;;;;;4987202;28;20022;-65
2023/09/02 14:14:34;;;;;;;2.70;1.08;;;;;;;;;;4987881;28;20027;-68
2023/09/02 14:16:59;;;;;;;2.80;1.00;;;;;;;;;;4987840;28;20426;-66
2023/09/02 14:19:25;;;;;;;2.70;1.40;;;;;;;;;;4988623;28;20056;-65
2023/09/02 14:21:50;;;;;;;2.53;1.20;;;;;;;;;;4981097;28;20307;-67
2023/09/02 14:24:15;;;;;;;2.30;1.00;;;;;;;;;;4987670;28;20271;-64
2023/09/02 14:26:41;;;;;;;2.00;1.10;;;;;;;;;;4987664;28;20336;-68
2023/09/02 14:29:06;;;;;;;5.50;1.77;;;;;;;;;;4988849;28;20514;-66